sensor_id;sensor_type;location;lat;lon;timestamp;P1;durP1;ratioP1;P2;durP2;ratioP2
37407;SDS011;24866;50.248;8.252;2022-07-12T00:00:55;1.52;;;1.00;;
37407;SDS011;24866;50.248;8.252;2022-07-12T00:03:25;2.03;;;0.93;;
37407;SDS011;24866;50.248;8.252;2022-07-12T00:05:55;1.45;;;0.98;;
37407;SDS011;24866;50.248;8.252;2022-07-12T00:08:26;2.45;;;1.00;;
37407;SDS011;24866;50.248;8.252;2022-07-12T00:10:57;1.10;;;0.70;;
37407;SDS011;24866;50.248;8.252;2022-07-12T00:13:27;1.13;;;0.82;;
37407;SDS011;24866;50.248;8.252;2022-07-12T00:15:58;0.85;;;0.60;;
37407;SDS011;24866;50.248;8.252;2022-07-12T00:18:28;2.95;;;1.17;;
37407;SDS011;24866;50.248;8.252;2022-07-12T00:20:58;2.08;;;1.02;;
37407;SDS011;24866;50.248;8.252;2022-07-12T00:23:28;2.65;;;1.05;;
37407;SDS011;24866;50.248;8.252;2022-07-12T00:25:59;3.78;;;1.15;;
37407;SDS011;24866;50.248;8.252;2022-07-12T00:28:32;2.47;;;0.75;;
37407;SDS011;24866;50.248;8.252;2022-07-12T00:31:02;1.40;;;0.90;;
37407;SDS011;24866;50.248;8.252;2022-07-12T00:33:33;1.27;;;0.90;;
37407;SDS011;24866;50.248;8.252;2022-07-12T00:36:03;2.40;;;1.05;;
37407;SDS011;24866;50.248;8.252;2022-07-12T00:38:34;1.83;;;1.30;;
37407;SDS011;24866;50.248;8.252;2022-07-12T00:41:05;2.20;;;1.20;;
37407;SDS011;24866;50.248;8.252;2022-07-12T00:43:35;5.43;;;1.63;;
37407;SDS011;24866;50.248;8.252;2022-07-12T00:46:05;2.60;;;1.73;;
37407;SDS011;24866;50.248;8.252;2022-07-12T00:48:36;2.20;;;1.58;;
37407;SDS011;24866;50.248;8.252;2022-07-12T00:51:06;1.98;;;1.30;;
37407;SDS011;24866;50.248;8.252;2022-07-12T00:53:36;1.80;;;1.20;;
37407;SDS011;24866;50.248;8.252;2022-07-12T00:56:07;1.80;;;1.13;;
37407;SDS011;24866;50.248;8.252;2022-07-12T00:58:38;2.25;;;1.20;;
37407;SDS011;24866;50.248;8.252;2022-07-12T01:01:09;1.98;;;1.17;;
37407;SDS011;24866;50.248;8.252;2022-07-12T01:03:40;1.73;;;1.00;;
37407;SDS011;24866;50.248;8.252;2022-07-12T01:06:10;1.70;;;1.30;;
37407;SDS011;24866;50.248;8.252;2022-07-12T01:08:41;2.10;;;1.40;;
37407;SDS011;24866;50.248;8.252;2022-07-12T01:11:12;2.55;;;1.30;;
37407;SDS011;24866;50.248;8.252;2022-07-12T01:13:43;2.90;;;1.63;;
37407;SDS011;24866;50.248;8.252;2022-07-12T01:16:13;1.77;;;1.10;;
37407;SDS011;24866;50.248;8.252;2022-07-12T01:18:44;4.78;;;1.30;;
37407;SDS011;24866;50.248;8.252;2022-07-12T01:21:15;1.42;;;0.93;;
37407;SDS011;24866;50.248;8.252;2022-07-12T01:23:50;2.33;;;1.30;;
37407;SDS011;24866;50.248;8.252;2022-07-12T01:26:20;2.50;;;1.60;;
37407;SDS011;24866;50.248;8.252;2022-07-12T01:28:50;2.25;;;1.45;;
37407;SDS011;24866;50.248;8.252;2022-07-12T01:31:22;3.25;;;1.25;;
37407;SDS011;24866;50.248;8.252;2022-07-12T01:33:52;2.17;;;1.55;;
37407;SDS011;24866;50.248;8.252;2022-07-12T01:36:22;2.00;;;1.38;;
37407;SDS011;24866;50.248;8.252;2022-07-12T01:38:53;2.00;;;1.20;;
37407;SDS011;24866;50.248;8.252;2022-07-12T01:41:23;2.47;;;1.23;;
37407;SDS011;24866;50.248;8.252;2022-07-12T01:43:53;3.05;;;1.30;;
37407;SDS011;24866;50.248;8.252;2022-07-12T01:46:24;4.35;;;1.80;;
37407;SDS011;24866;50.248;8.252;2022-07-12T01:48:54;5.18;;;1.50;;
37407;SDS011;24866;50.248;8.252;2022-07-12T01:51:24;2.22;;;1.13;;
37407;SDS011;24866;50.248;8.252;2022-07-12T01:53:56;2.05;;;1.17;;
37407;SDS011;24866;50.248;8.252;2022-07-12T01:56:26;2.58;;;1.27;;
37407;SDS011;24866;50.248;8.252;2022-07-12T01:58:57;2.75;;;1.30;;
37407;SDS011;24866;50.248;8.252;2022-07-12T02:01:27;1.85;;;1.30;;
37407;SDS011;24866;50.248;8.252;2022-07-12T02:04:00;2.05;;;1.10;;
37407;SDS011;24866;50.248;8.252;2022-07-12T02:06:31;1.90;;;1.25;;
37407;SDS011;24866;50.248;8.252;2022-07-12T02:09:04;3.35;;;1.30;;
37407;SDS011;24866;50.248;8.252;2022-07-12T02:11:34;2.67;;;1.30;;
37407;SDS011;24866;50.248;8.252;2022-07-12T02:14:04;5.40;;;1.60;;
37407;SDS011;24866;50.248;8.252;2022-07-12T02:16:34;1.70;;;1.13;;
37407;SDS011;24866;50.248;8.252;2022-07-12T02:19:04;1.58;;;1.10;;
37407;SDS011;24866;50.248;8.252;2022-07-12T02:21:34;2.40;;;1.20;;
37407;SDS011;24866;50.248;8.252;2022-07-12T02:24:06;1.52;;;1.13;;
37407;SDS011;24866;50.248;8.252;2022-07-12T02:26:36;4.10;;;1.27;;
37407;SDS011;24866;50.248;8.252;2022-07-12T02:29:06;5.82;;;1.55;;
37407;SDS011;24866;50.248;8.252;2022-07-12T02:31:36;2.40;;;1.30;;
37407;SDS011;24866;50.248;8.252;2022-07-12T02:34:06;2.20;;;1.20;;
37407;SDS011;24866;50.248;8.252;2022-07-12T02:36:36;5.78;;;2.05;;
37407;SDS011;24866;50.248;8.252;2022-07-12T02:39:08;2.42;;;1.38;;
37407;SDS011;24866;50.248;8.252;2022-07-12T02:41:39;3.08;;;1.30;;
37407;SDS011;24866;50.248;8.252;2022-07-12T02:44:09;2.10;;;1.25;;
37407;SDS011;24866;50.248;8.252;2022-07-12T02:46:39;2.13;;;1.40;;
37407;SDS011;24866;50.248;8.252;2022-07-12T02:49:09;3.03;;;1.27;;
37407;SDS011;24866;50.248;8.252;2022-07-12T02:51:39;1.98;;;1.23;;
37407;SDS011;24866;50.248;8.252;2022-07-12T02:54:10;3.55;;;1.20;;
37407;SDS011;24866;50.248;8.252;2022-07-12T02:56:40;3.53;;;1.52;;
37407;SDS011;24866;50.248;8.252;2022-07-12T02:59:10;2.47;;;1.25;;
37407;SDS011;24866;50.248;8.252;2022-07-12T03:01:40;2.13;;;1.30;;
37407;SDS011;24866;50.248;8.252;2022-07-12T03:04:10;2.65;;;1.27;;
37407;SDS011;24866;50.248;8.252;2022-07-12T03:06:40;3.38;;;1.75;;
37407;SDS011;24866;50.248;8.252;2022-07-12T03:09:11;3.20;;;1.33;;
37407;SDS011;24866;50.248;8.252;2022-07-12T03:11:41;2.35;;;1.40;;
37407;SDS011;24866;50.248;8.252;2022-07-12T03:14:11;2.60;;;1.17;;
37407;SDS011;24866;50.248;8.252;2022-07-12T03:16:42;4.65;;;1.85;;
37407;SDS011;24866;50.248;8.252;2022-07-12T03:19:12;2.80;;;1.80;;
37407;SDS011;24866;50.248;8.252;2022-07-12T03:21:42;3.10;;;1.75;;
37407;SDS011;24866;50.248;8.252;2022-07-12T03:24:14;2.80;;;1.42;;
37407;SDS011;24866;50.248;8.252;2022-07-12T03:26:44;3.03;;;1.92;;
37407;SDS011;24866;50.248;8.252;2022-07-12T03:29:14;2.92;;;1.88;;
37407;SDS011;24866;50.248;8.252;2022-07-12T03:31:44;6.88;;;2.25;;
37407;SDS011;24866;50.248;8.252;2022-07-12T03:34:14;3.08;;;2.25;;
37407;SDS011;24866;50.248;8.252;2022-07-12T03:36:44;6.00;;;2.00;;
37407;SDS011;24866;50.248;8.252;2022-07-12T03:39:15;4.03;;;2.00;;
37407;SDS011;24866;50.248;8.252;2022-07-12T03:41:45;3.13;;;2.03;;
37407;SDS011;24866;50.248;8.252;2022-07-12T03:44:16;2.92;;;1.75;;
37407;SDS011;24866;50.248;8.252;2022-07-12T03:46:46;3.00;;;1.70;;
37407;SDS011;24866;50.248;8.252;2022-07-12T03:49:16;4.65;;;1.67;;
37407;SDS011;24866;50.248;8.252;2022-07-12T03:51:46;3.65;;;2.22;;
37407;SDS011;24866;50.248;8.252;2022-07-12T03:54:17;4.10;;;2.13;;
37407;SDS011;24866;50.248;8.252;2022-07-12T03:56:47;4.40;;;2.38;;
37407;SDS011;24866;50.248;8.252;2022-07-12T03:59:35;3.47;;;2.00;;
37407;SDS011;24866;50.248;8.252;2022-07-12T04:02:05;3.47;;;2.05;;
37407;SDS011;24866;50.248;8.252;2022-07-12T04:04:35;3.78;;;2.22;;
37407;SDS011;24866;50.248;8.252;2022-07-12T04:07:05;3.65;;;2.15;;
37407;SDS011;24866;50.248;8.252;2022-07-12T04:09:36;3.22;;;2.20;;
37407;SDS011;24866;50.248;8.252;2022-07-12T04:12:06;4.97;;;2.10;;
37407;SDS011;24866;50.248;8.252;2022-07-12T04:14:37;5.85;;;2.30;;
37407;SDS011;24866;50.248;8.252;2022-07-12T04:17:07;3.30;;;2.03;;
37407;SDS011;24866;50.248;8.252;2022-07-12T04:19:37;4.47;;;2.03;;
37407;SDS011;24866;50.248;8.252;2022-07-12T04:22:07;3.88;;;2.10;;
37407;SDS011;24866;50.248;8.252;2022-07-12T04:24:38;2.80;;;1.90;;
37407;SDS011;24866;50.248;8.252;2022-07-12T04:27:08;3.10;;;2.00;;
37407;SDS011;24866;50.248;8.252;2022-07-12T04:29:38;4.32;;;2.33;;
37407;SDS011;24866;50.248;8.252;2022-07-12T04:32:08;4.25;;;2.20;;
37407;SDS011;24866;50.248;8.252;2022-07-12T04:34:38;4.15;;;2.25;;
37407;SDS011;24866;50.248;8.252;2022-07-12T04:37:08;4.35;;;2.13;;
37407;SDS011;24866;50.248;8.252;2022-07-12T04:39:39;4.13;;;2.03;;
37407;SDS011;24866;50.248;8.252;2022-07-12T04:42:09;2.85;;;2.10;;
37407;SDS011;24866;50.248;8.252;2022-07-12T04:44:39;4.63;;;2.65;;
37407;SDS011;24866;50.248;8.252;2022-07-12T04:47:09;4.78;;;2.50;;
37407;SDS011;24866;50.248;8.252;2022-07-12T04:49:39;5.32;;;3.08;;
37407;SDS011;24866;50.248;8.252;2022-07-12T04:52:09;4.10;;;2.90;;
37407;SDS011;24866;50.248;8.252;2022-07-12T04:54:41;4.03;;;2.33;;
37407;SDS011;24866;50.248;8.252;2022-07-12T04:57:11;7.97;;;3.03;;
37407;SDS011;24866;50.248;8.252;2022-07-12T04:59:40;5.88;;;2.95;;
37407;SDS011;24866;50.248;8.252;2022-07-12T05:02:10;4.25;;;3.05;;
37407;SDS011;24866;50.248;8.252;2022-07-12T05:04:40;6.18;;;2.92;;
37407;SDS011;24866;50.248;8.252;2022-07-12T05:07:10;4.20;;;2.85;;
37407;SDS011;24866;50.248;8.252;2022-07-12T05:09:42;4.40;;;2.88;;
37407;SDS011;24866;50.248;8.252;2022-07-12T05:12:12;4.63;;;3.35;;
37407;SDS011;24866;50.248;8.252;2022-07-12T05:14:42;5.60;;;3.25;;
37407;SDS011;24866;50.248;8.252;2022-07-12T05:17:12;5.93;;;3.67;;
37407;SDS011;24866;50.248;8.252;2022-07-12T05:19:41;4.97;;;3.35;;
37407;SDS011;24866;50.248;8.252;2022-07-12T05:22:12;5.20;;;3.65;;
37407;SDS011;24866;50.248;8.252;2022-07-12T05:24:43;5.90;;;3.88;;
37407;SDS011;24866;50.248;8.252;2022-07-12T05:27:13;6.00;;;4.05;;
37407;SDS011;24866;50.248;8.252;2022-07-12T05:29:43;9.25;;;4.00;;
37407;SDS011;24866;50.248;8.252;2022-07-12T05:32:13;8.30;;;4.10;;
37407;SDS011;24866;50.248;8.252;2022-07-12T05:34:43;5.60;;;3.60;;
37407;SDS011;24866;50.248;8.252;2022-07-12T05:37:13;6.45;;;4.53;;
37407;SDS011;24866;50.248;8.252;2022-07-12T05:39:44;5.50;;;3.95;;
37407;SDS011;24866;50.248;8.252;2022-07-12T05:42:14;5.90;;;4.88;;
37407;SDS011;24866;50.248;8.252;2022-07-12T05:44:44;6.35;;;4.75;;
37407;SDS011;24866;50.248;8.252;2022-07-12T05:47:15;8.25;;;4.45;;
37407;SDS011;24866;50.248;8.252;2022-07-12T05:49:45;6.18;;;4.65;;
37407;SDS011;24866;50.248;8.252;2022-07-12T05:52:15;7.25;;;4.45;;
37407;SDS011;24866;50.248;8.252;2022-07-12T05:55:03;7.47;;;5.28;;
37407;SDS011;24866;50.248;8.252;2022-07-12T05:57:34;7.45;;;6.10;;
37407;SDS011;24866;50.248;8.252;2022-07-12T06:00:04;9.38;;;6.88;;
37407;SDS011;24866;50.248;8.252;2022-07-12T06:02:35;9.75;;;7.35;;
37407;SDS011;24866;50.248;8.252;2022-07-12T06:05:08;9.13;;;6.57;;
37407;SDS011;24866;50.248;8.252;2022-07-12T06:07:38;9.63;;;7.30;;
37407;SDS011;24866;50.248;8.252;2022-07-12T06:10:09;10.73;;;7.43;;
37407;SDS011;24866;50.248;8.252;2022-07-12T06:12:39;8.60;;;5.68;;
37407;SDS011;24866;50.248;8.252;2022-07-12T06:15:09;7.90;;;6.32;;
37407;SDS011;24866;50.248;8.252;2022-07-12T06:17:39;9.77;;;6.95;;
37407;SDS011;24866;50.248;8.252;2022-07-12T06:20:10;7.28;;;4.95;;
37407;SDS011;24866;50.248;8.252;2022-07-12T06:22:40;5.97;;;5.07;;
37407;SDS011;24866;50.248;8.252;2022-07-12T06:25:11;6.65;;;5.28;;
37407;SDS011;24866;50.248;8.252;2022-07-12T06:27:41;6.63;;;5.60;;
37407;SDS011;24866;50.248;8.252;2022-07-12T06:30:12;6.60;;;5.43;;
37407;SDS011;24866;50.248;8.252;2022-07-12T06:32:42;6.88;;;5.20;;
37407;SDS011;24866;50.248;8.252;2022-07-12T06:35:13;5.57;;;4.68;;
37407;SDS011;24866;50.248;8.252;2022-07-12T06:37:44;6.25;;;4.40;;
37407;SDS011;24866;50.248;8.252;2022-07-12T06:40:15;7.80;;;4.75;;
37407;SDS011;24866;50.248;8.252;2022-07-12T06:42:46;8.63;;;5.23;;
37407;SDS011;24866;50.248;8.252;2022-07-12T06:45:17;5.45;;;4.03;;
37407;SDS011;24866;50.248;8.252;2022-07-12T06:47:47;5.57;;;3.90;;
37407;SDS011;24866;50.248;8.252;2022-07-12T06:50:17;5.25;;;3.47;;
37407;SDS011;24866;50.248;8.252;2022-07-12T06:52:48;6.18;;;4.25;;
37407;SDS011;24866;50.248;8.252;2022-07-12T06:55:19;4.43;;;3.40;;
37407;SDS011;24866;50.248;8.252;2022-07-12T06:57:49;4.45;;;4.00;;
37407;SDS011;24866;50.248;8.252;2022-07-12T07:00:19;4.28;;;3.17;;
37407;SDS011;24866;50.248;8.252;2022-07-12T07:02:50;5.57;;;3.22;;
37407;SDS011;24866;50.248;8.252;2022-07-12T07:05:20;4.47;;;3.65;;
37407;SDS011;24866;50.248;8.252;2022-07-12T07:07:50;5.20;;;3.80;;
37407;SDS011;24866;50.248;8.252;2022-07-12T07:10:22;3.88;;;2.45;;
37407;SDS011;24866;50.248;8.252;2022-07-12T07:12:54;4.85;;;2.70;;
37407;SDS011;24866;50.248;8.252;2022-07-12T07:15:24;5.80;;;2.95;;
37407;SDS011;24866;50.248;8.252;2022-07-12T07:17:55;4.65;;;3.03;;
37407;SDS011;24866;50.248;8.252;2022-07-12T07:20:25;4.90;;;3.50;;
37407;SDS011;24866;50.248;8.252;2022-07-12T07:22:55;2.60;;;2.05;;
37407;SDS011;24866;50.248;8.252;2022-07-12T07:25:27;3.38;;;2.38;;
37407;SDS011;24866;50.248;8.252;2022-07-12T07:27:58;5.18;;;2.70;;
37407;SDS011;24866;50.248;8.252;2022-07-12T07:30:28;4.75;;;3.00;;
37407;SDS011;24866;50.248;8.252;2022-07-12T07:33:15;4.65;;;2.78;;
37407;SDS011;24866;50.248;8.252;2022-07-12T07:35:45;4.25;;;3.20;;
37407;SDS011;24866;50.248;8.252;2022-07-12T07:38:16;6.22;;;3.50;;
37407;SDS011;24866;50.248;8.252;2022-07-12T07:40:48;3.80;;;2.80;;
37407;SDS011;24866;50.248;8.252;2022-07-12T07:43:18;2.83;;;2.13;;
37407;SDS011;24866;50.248;8.252;2022-07-12T07:45:48;3.40;;;3.03;;
37407;SDS011;24866;50.248;8.252;2022-07-12T07:48:19;3.33;;;1.95;;
37407;SDS011;24866;50.248;8.252;2022-07-12T07:50:49;2.80;;;1.80;;
37407;SDS011;24866;50.248;8.252;2022-07-12T07:53:19;3.42;;;1.92;;
37407;SDS011;24866;50.248;8.252;2022-07-12T07:55:51;3.50;;;2.58;;
37407;SDS011;24866;50.248;8.252;2022-07-12T07:58:21;3.42;;;2.50;;
37407;SDS011;24866;50.248;8.252;2022-07-12T08:00:51;5.80;;;2.53;;
37407;SDS011;24866;50.248;8.252;2022-07-12T08:03:21;2.25;;;1.95;;
37407;SDS011;24866;50.248;8.252;2022-07-12T08:05:52;2.40;;;1.52;;
37407;SDS011;24866;50.248;8.252;2022-07-12T08:08:25;5.25;;;1.75;;
37407;SDS011;24866;50.248;8.252;2022-07-12T08:10:57;2.45;;;2.00;;
37407;SDS011;24866;50.248;8.252;2022-07-12T08:13:27;2.42;;;2.10;;
37407;SDS011;24866;50.248;8.252;2022-07-12T08:15:58;3.30;;;2.05;;
37407;SDS011;24866;50.248;8.252;2022-07-12T08:18:28;2.65;;;1.65;;
37407;SDS011;24866;50.248;8.252;2022-07-12T08:20:58;1.60;;;1.40;;
37407;SDS011;24866;50.248;8.252;2022-07-12T08:23:28;2.45;;;1.35;;
37407;SDS011;24866;50.248;8.252;2022-07-12T08:25:59;1.85;;;1.30;;
37407;SDS011;24866;50.248;8.252;2022-07-12T08:28:30;2.88;;;1.30;;
37407;SDS011;24866;50.248;8.252;2022-07-12T08:31:00;2.28;;;1.15;;
37407;SDS011;24866;50.248;8.252;2022-07-12T08:33:30;2.42;;;1.10;;
37407;SDS011;24866;50.248;8.252;2022-07-12T08:36:00;2.35;;;0.82;;
37407;SDS011;24866;50.248;8.252;2022-07-12T08:38:30;1.10;;;0.90;;
37407;SDS011;24866;50.248;8.252;2022-07-12T08:41:03;2.72;;;0.80;;
37407;SDS011;24866;50.248;8.252;2022-07-12T08:43:34;2.00;;;1.10;;
37407;SDS011;24866;50.248;8.252;2022-07-12T08:46:04;1.48;;;0.93;;
37407;SDS011;24866;50.248;8.252;2022-07-12T08:48:36;1.40;;;0.70;;
37407;SDS011;24866;50.248;8.252;2022-07-12T08:51:09;0.93;;;0.60;;
37407;SDS011;24866;50.248;8.252;2022-07-12T08:53:41;1.48;;;0.93;;
37407;SDS011;24866;50.248;8.252;2022-07-12T08:59:13;1.70;;;0.80;;
37407;SDS011;24866;50.248;8.252;2022-07-12T09:01:45;0.65;;;0.50;;
37407;SDS011;24866;50.248;8.252;2022-07-12T09:04:18;1.17;;;0.70;;
37407;SDS011;24866;50.248;8.252;2022-07-12T09:06:50;0.90;;;0.70;;
37407;SDS011;24866;50.248;8.252;2022-07-12T09:09:27;1.13;;;0.82;;
37407;SDS011;24866;50.248;8.252;2022-07-12T09:11:59;1.30;;;0.85;;
37407;SDS011;24866;50.248;8.252;2022-07-12T09:14:30;1.48;;;1.00;;
37407;SDS011;24866;50.248;8.252;2022-07-12T09:17:02;3.22;;;0.90;;
37407;SDS011;24866;50.248;8.252;2022-07-12T09:19:37;1.27;;;0.90;;
37407;SDS011;24866;50.248;8.252;2022-07-12T09:22:13;1.88;;;1.00;;
37407;SDS011;24866;50.248;8.252;2022-07-12T09:24:44;1.13;;;0.70;;
37407;SDS011;24866;50.248;8.252;2022-07-12T09:27:16;3.17;;;1.02;;
37407;SDS011;24866;50.248;8.252;2022-07-12T09:29:53;2.65;;;0.95;;
37407;SDS011;24866;50.248;8.252;2022-07-12T09:32:23;3.22;;;1.00;;
37407;SDS011;24866;50.248;8.252;2022-07-12T09:35:10;2.10;;;1.00;;
37407;SDS011;24866;50.248;8.252;2022-07-12T09:38:07;1.08;;;0.82;;
37407;SDS011;24866;50.248;8.252;2022-07-12T09:40:37;2.17;;;0.75;;
37407;SDS011;24866;50.248;8.252;2022-07-12T09:43:09;1.55;;;1.10;;
37407;SDS011;24866;50.248;8.252;2022-07-12T09:45:41;2.10;;;0.88;;
37407;SDS011;24866;50.248;8.252;2022-07-12T09:48:12;1.17;;;0.80;;
37407;SDS011;24866;50.248;8.252;2022-07-12T09:50:46;3.38;;;1.08;;
37407;SDS011;24866;50.248;8.252;2022-07-12T09:53:19;3.20;;;1.13;;
37407;SDS011;24866;50.248;8.252;2022-07-12T09:55:53;1.63;;;1.08;;
37407;SDS011;24866;50.248;8.252;2022-07-12T09:58:28;2.22;;;1.00;;
37407;SDS011;24866;50.248;8.252;2022-07-12T10:01:01;1.48;;;0.90;;
37407;SDS011;24866;50.248;8.252;2022-07-12T10:03:32;1.45;;;1.00;;
37407;SDS011;24866;50.248;8.252;2022-07-12T10:06:04;1.75;;;0.90;;
37407;SDS011;24866;50.248;8.252;2022-07-12T10:08:35;2.97;;;1.20;;
37407;SDS011;24866;50.248;8.252;2022-07-12T10:11:05;1.10;;;0.82;;
37407;SDS011;24866;50.248;8.252;2022-07-12T10:13:38;1.92;;;0.80;;
37407;SDS011;24866;50.248;8.252;2022-07-12T10:16:08;1.17;;;0.87;;
37407;SDS011;24866;50.248;8.252;2022-07-12T10:18:41;1.02;;;0.73;;
37407;SDS011;24866;50.248;8.252;2022-07-12T10:21:17;1.65;;;1.00;;
37407;SDS011;24866;50.248;8.252;2022-07-12T10:23:48;1.13;;;0.68;;
37407;SDS011;24866;50.248;8.252;2022-07-12T10:26:29;2.10;;;0.55;;
37407;SDS011;24866;50.248;8.252;2022-07-12T10:29:11;1.00;;;0.60;;
37407;SDS011;24866;50.248;8.252;2022-07-12T10:31:49;1.15;;;0.73;;
37407;SDS011;24866;50.248;8.252;2022-07-12T10:34:19;1.10;;;0.70;;
37407;SDS011;24866;50.248;8.252;2022-07-12T10:37:09;1.40;;;0.70;;
37407;SDS011;24866;50.248;8.252;2022-07-12T10:39:40;2.35;;;0.70;;
37407;SDS011;24866;50.248;8.252;2022-07-12T10:42:13;1.13;;;0.70;;
37407;SDS011;24866;50.248;8.252;2022-07-12T10:44:47;1.63;;;0.60;;
37407;SDS011;24866;50.248;8.252;2022-07-12T10:47:17;0.82;;;0.60;;
37407;SDS011;24866;50.248;8.252;2022-07-12T10:49:48;1.23;;;0.57;;
37407;SDS011;24866;50.248;8.252;2022-07-12T10:57:48;0.75;;;0.40;;
37407;SDS011;24866;50.248;8.252;2022-07-12T11:00:23;1.45;;;0.63;;
37407;SDS011;24866;50.248;8.252;2022-07-12T11:02:53;1.63;;;0.68;;
37407;SDS011;24866;50.248;8.252;2022-07-12T11:05:24;1.83;;;0.50;;
37407;SDS011;24866;50.248;8.252;2022-07-12T11:07:55;1.90;;;0.60;;
37407;SDS011;24866;50.248;8.252;2022-07-12T11:10:25;1.85;;;0.55;;
37407;SDS011;24866;50.248;8.252;2022-07-12T11:12:55;0.80;;;0.52;;
37407;SDS011;24866;50.248;8.252;2022-07-12T11:15:27;0.90;;;0.50;;
37407;SDS011;24866;50.248;8.252;2022-07-12T11:17:57;1.63;;;0.70;;
37407;SDS011;24866;50.248;8.252;2022-07-12T11:20:27;3.60;;;0.40;;
37407;SDS011;24866;50.248;8.252;2022-07-12T11:22:57;1.15;;;0.55;;
37407;SDS011;24866;50.248;8.252;2022-07-12T11:25:28;0.93;;;0.40;;
37407;SDS011;24866;50.248;8.252;2022-07-12T11:27:59;1.77;;;0.50;;
37407;SDS011;24866;50.248;8.252;2022-07-12T11:30:30;0.77;;;0.60;;
37407;SDS011;24866;50.248;8.252;2022-07-12T11:33:00;2.90;;;0.73;;
37407;SDS011;24866;50.248;8.252;2022-07-12T11:35:30;1.35;;;0.63;;
37407;SDS011;24866;50.248;8.252;2022-07-12T11:38:01;1.55;;;0.63;;
37407;SDS011;24866;50.248;8.252;2022-07-12T11:40:31;1.05;;;0.55;;
37407;SDS011;24866;50.248;8.252;2022-07-12T11:43:01;1.42;;;0.57;;
37407;SDS011;24866;50.248;8.252;2022-07-12T11:45:34;0.73;;;0.52;;
37407;SDS011;24866;50.248;8.252;2022-07-12T11:50:35;1.15;;;0.50;;
37407;SDS011;24866;50.248;8.252;2022-07-12T11:53:05;1.00;;;0.47;;
37407;SDS011;24866;50.248;8.252;2022-07-12T11:55:43;2.60;;;0.50;;
37407;SDS011;24866;50.248;8.252;2022-07-12T11:58:14;2.22;;;0.93;;
37407;SDS011;24866;50.248;8.252;2022-07-12T12:00:46;3.33;;;0.80;;
37407;SDS011;24866;50.248;8.252;2022-07-12T12:03:18;0.50;;;0.50;;
37407;SDS011;24866;50.248;8.252;2022-07-12T12:05:50;1.02;;;0.40;;
37407;SDS011;24866;50.248;8.252;2022-07-12T12:08:21;1.65;;;0.50;;
37407;SDS011;24866;50.248;8.252;2022-07-12T12:10:53;1.20;;;0.50;;
37407;SDS011;24866;50.248;8.252;2022-07-12T12:13:25;0.75;;;0.50;;
37407;SDS011;24866;50.248;8.252;2022-07-12T12:15:59;2.42;;;0.60;;
37407;SDS011;24866;50.248;8.252;2022-07-12T12:18:30;4.15;;;0.88;;
37407;SDS011;24866;50.248;8.252;2022-07-12T12:23:33;0.95;;;0.50;;
37407;SDS011;24866;50.248;8.252;2022-07-12T12:26:08;0.93;;;0.50;;
37407;SDS011;24866;50.248;8.252;2022-07-12T12:28:43;1.45;;;0.50;;
37407;SDS011;24866;50.248;8.252;2022-07-12T12:31:17;0.95;;;0.60;;
37407;SDS011;24866;50.248;8.252;2022-07-12T12:33:48;1.27;;;0.43;;
37407;SDS011;24866;50.248;8.252;2022-07-12T12:36:20;1.00;;;0.60;;
37407;SDS011;24866;50.248;8.252;2022-07-12T12:38:51;1.15;;;0.50;;
37407;SDS011;24866;50.248;8.252;2022-07-12T12:41:23;0.70;;;0.40;;
37407;SDS011;24866;50.248;8.252;2022-07-12T12:43:58;2.05;;;0.47;;
37407;SDS011;24866;50.248;8.252;2022-07-12T12:49:50;2.03;;;0.55;;
37407;SDS011;24866;50.248;8.252;2022-07-12T12:52:23;1.92;;;0.55;;
37407;SDS011;24866;50.248;8.252;2022-07-12T12:54:54;4.60;;;0.50;;
37407;SDS011;24866;50.248;8.252;2022-07-12T12:57:24;0.98;;;0.50;;
37407;SDS011;24866;50.248;8.252;2022-07-12T12:59:54;1.27;;;0.55;;
37407;SDS011;24866;50.248;8.252;2022-07-12T13:02:26;2.15;;;0.68;;
37407;SDS011;24866;50.248;8.252;2022-07-12T13:04:56;1.05;;;0.63;;
37407;SDS011;24866;50.248;8.252;2022-07-12T13:07:26;1.85;;;0.55;;
37407;SDS011;24866;50.248;8.252;2022-07-12T13:09:57;1.80;;;0.52;;
37407;SDS011;24866;50.248;8.252;2022-07-12T13:12:27;3.42;;;0.50;;
37407;SDS011;24866;50.248;8.252;2022-07-12T13:14:57;3.60;;;0.80;;
37407;SDS011;24866;50.248;8.252;2022-07-12T13:17:28;0.60;;;0.50;;
37407;SDS011;24866;50.248;8.252;2022-07-12T13:19:59;2.13;;;0.43;;
37407;SDS011;24866;50.248;8.252;2022-07-12T13:22:29;0.88;;;0.50;;
37407;SDS011;24866;50.248;8.252;2022-07-12T13:25:01;2.25;;;0.60;;
37407;SDS011;24866;50.248;8.252;2022-07-12T13:27:31;1.17;;;0.40;;
37407;SDS011;24866;50.248;8.252;2022-07-12T13:30:04;1.00;;;0.60;;
37407;SDS011;24866;50.248;8.252;2022-07-12T13:32:39;3.08;;;0.80;;
37407;SDS011;24866;50.248;8.252;2022-07-12T13:35:11;1.00;;;0.50;;
37407;SDS011;24866;50.248;8.252;2022-07-12T13:37:43;1.45;;;0.50;;
37407;SDS011;24866;50.248;8.252;2022-07-12T13:40:16;2.78;;;0.50;;
37407;SDS011;24866;50.248;8.252;2022-07-12T13:42:51;0.30;;;0.30;;
37407;SDS011;24866;50.248;8.252;2022-07-12T13:45:22;1.63;;;0.57;;
37407;SDS011;24866;50.248;8.252;2022-07-12T13:47:59;0.65;;;0.50;;
37407;SDS011;24866;50.248;8.252;2022-07-12T13:50:30;1.20;;;0.55;;
37407;SDS011;24866;50.248;8.252;2022-07-12T13:53:00;2.28;;;0.82;;
37407;SDS011;24866;50.248;8.252;2022-07-12T13:55:30;0.68;;;0.50;;
37407;SDS011;24866;50.248;8.252;2022-07-12T13:58:00;2.13;;;0.50;;
37407;SDS011;24866;50.248;8.252;2022-07-12T14:00:31;5.15;;;0.82;;
37407;SDS011;24866;50.248;8.252;2022-07-12T14:03:03;1.00;;;0.57;;
37407;SDS011;24866;50.248;8.252;2022-07-12T14:05:33;2.20;;;0.50;;
37407;SDS011;24866;50.248;8.252;2022-07-12T14:08:03;0.57;;;0.45;;
37407;SDS011;24866;50.248;8.252;2022-07-12T14:10:34;1.35;;;0.50;;
37407;SDS011;24866;50.248;8.252;2022-07-12T14:13:04;1.92;;;0.70;;
37407;SDS011;24866;50.248;8.252;2022-07-12T14:15:35;4.65;;;0.75;;
37407;SDS011;24866;50.248;8.252;2022-07-12T14:18:06;1.33;;;0.77;;
37407;SDS011;24866;50.248;8.252;2022-07-12T14:20:37;0.75;;;0.60;;
37407;SDS011;24866;50.248;8.252;2022-07-12T14:23:07;1.65;;;0.70;;
37407;SDS011;24866;50.248;8.252;2022-07-12T14:25:40;2.33;;;0.50;;
37407;SDS011;24866;50.248;8.252;2022-07-12T14:28:10;1.00;;;0.40;;
37407;SDS011;24866;50.248;8.252;2022-07-12T14:30:40;1.15;;;0.70;;
37407;SDS011;24866;50.248;8.252;2022-07-12T14:33:11;2.20;;;0.75;;
37407;SDS011;24866;50.248;8.252;2022-07-12T14:35:41;1.23;;;0.60;;
37407;SDS011;24866;50.248;8.252;2022-07-12T14:38:14;0.68;;;0.50;;
37407;SDS011;24866;50.248;8.252;2022-07-12T14:40:57;4.10;;;0.52;;
37407;SDS011;24866;50.248;8.252;2022-07-12T14:43:28;1.17;;;0.63;;
37407;SDS011;24866;50.248;8.252;2022-07-12T14:45:58;3.67;;;0.85;;
37407;SDS011;24866;50.248;8.252;2022-07-12T14:48:29;3.03;;;0.50;;
37407;SDS011;24866;50.248;8.252;2022-07-12T14:50:59;2.00;;;0.70;;
37407;SDS011;24866;50.248;8.252;2022-07-12T14:53:29;3.08;;;0.70;;
37407;SDS011;24866;50.248;8.252;2022-07-12T14:55:59;3.40;;;0.60;;
37407;SDS011;24866;50.248;8.252;2022-07-12T14:58:29;1.38;;;0.50;;
37407;SDS011;24866;50.248;8.252;2022-07-12T15:01:00;0.63;;;0.47;;
37407;SDS011;24866;50.248;8.252;2022-07-12T15:03:31;1.52;;;0.60;;
37407;SDS011;24866;50.248;8.252;2022-07-12T15:06:02;3.97;;;0.65;;
37407;SDS011;24866;50.248;8.252;2022-07-12T15:08:32;1.48;;;0.50;;
37407;SDS011;24866;50.248;8.252;2022-07-12T15:11:02;1.23;;;0.60;;
37407;SDS011;24866;50.248;8.252;2022-07-12T15:13:33;1.15;;;0.63;;
37407;SDS011;24866;50.248;8.252;2022-07-12T15:16:03;3.17;;;0.63;;
37407;SDS011;24866;50.248;8.252;2022-07-12T15:18:36;0.55;;;0.50;;
37407;SDS011;24866;50.248;8.252;2022-07-12T15:21:07;0.75;;;0.73;;
37407;SDS011;24866;50.248;8.252;2022-07-12T15:23:37;1.30;;;0.57;;
37407;SDS011;24866;50.248;8.252;2022-07-12T15:26:07;0.98;;;0.50;;
37407;SDS011;24866;50.248;8.252;2022-07-12T15:28:48;2.53;;;0.68;;